Dades meteomassalio
Diari Summary for Gener 4, 2018 Units:  Metric    English   Both
« Previous Day
Next Day »
Diari Semanal Mensual Anual Personalitzat
  Maxima: Minima: Mijana:
Temperatura: -17.8 °C -11.9 °C -9.6 °C
Rosada: -17.8 °C -15.8 °C -13.8 °C
Humitat: Humidity % 44 % 61 %
Velocitat del vent: 0 km/h 0 km/h 39.4 km/h
Racha vent: 0 km/h - -
Vent:- - NW
Pressio: 0 hPa 34567.7 hPa -
Pluja: 0 mm    
Historical Graphs
 
 
Tabular Data for Gener 4, 2018
Time Temperature Dew Point Pressure Wind Wind Speed Wind Gust Humidity Rainfall Rate (Hourly) solar Conditions
-17.8 °C -17.8 °C 0 hPa Calm     Humidity % 0 mm SolarRadiationWatts/m^2 W/m2 Conditions
00:03 -10.1 °C -13.4 °C 34797.9 hPa WNW 26.9 km/h 26.9 km/h 67 % 0 mm 0.0 W/m2 CLR
00:04 -10.1 °C -13.4 °C 34797.9 hPa WNW 26.9 km/h 26.9 km/h 67 % 0 mm 0.0 W/m2 CLR
00:08 -9.8 °C -13.1 °C 34784.4 hPa West 26.9 km/h 26.9 km/h 67 % 0 mm 0.0 W/m2 CLR
00:11 -9.8 °C -13 °C 34784.4 hPa WNW 15 km/h 15 km/h 68 % 0 mm 0.0 W/m2 CLR
00:15 -9.8 °C -12.9 °C 34784.4 hPa WNW 29.8 km/h 29.8 km/h 69 % 0 mm 0.0 W/m2 CLR
00:21 -10.1 °C -13.2 °C 34784.4 hPa WNW 29.8 km/h 29.8 km/h 69 % 0 mm 0.0 W/m2 CLR
00:26 -10.1 °C -13.2 °C 34784.4 hPa West 31.1 km/h 31.1 km/h 69 % 0 mm 0.0 W/m2 CLR
00:27 -10.1 °C -13.2 °C 34784.4 hPa West 29.8 km/h 29.8 km/h 69 % 0 mm 0.0 W/m2 CLR
00:32 -10.1 °C -13.2 °C 34784.4 hPa West 29.8 km/h 29.8 km/h 69 % 0 mm 0.0 W/m2 CLR
00:33 -10.1 °C -13.1 °C 34784.4 hPa WNW 29.8 km/h 29.8 km/h 70 % 0 mm 0.0 W/m2 CLR
00:39 -10.1 °C -13.1 °C 34784.4 hPa West 20.9 km/h 20.9 km/h 70 % 0 mm 0.0 W/m2 CLR
00:46 -10.1 °C -13.1 °C 34784.4 hPa WNW 17.9 km/h 17.9 km/h 70 % 0 mm 0.0 W/m2 CLR
00:50 -10.1 °C -13.1 °C 34784.4 hPa West 17.9 km/h 17.9 km/h 70 % 0 mm 0.0 W/m2 CLR
00:52 -10.1 °C -13.1 °C 34784.4 hPa West 23.8 km/h 23.8 km/h 70 % 0 mm 0.0 W/m2 CLR
00:57 -10.1 °C -13.1 °C 34784.4 hPa WNW 29.8 km/h 29.8 km/h 70 % 0 mm 0.0 W/m2 CLR
01:00 -10.1 °C -13.1 °C 34784.4 hPa WNW 20.9 km/h 20.9 km/h 70 % 0 mm 0.0 W/m2 CLR
01:02 -10.1 °C -13.1 °C 34784.4 hPa NW 29.8 km/h 29.8 km/h 70 % 0 mm 0.0 W/m2 CLR
01:09 -10.4 °C -13.3 °C 34784.4 hPa WNW 29.8 km/h 29.8 km/h 70 % 0 mm 0.0 W/m2 CLR
01:11 -10.4 °C -13.4 °C 34784.4 hPa WNW 20.9 km/h 20.9 km/h 69 % 0 mm 0.0 W/m2 CLR
01:14 -10.4 °C -13.4 °C 34784.4 hPa NW 26.9 km/h 26.9 km/h 69 % 0 mm 0.0 W/m2 CLR
01:19 -10.4 °C -13.4 °C 34784.4 hPa NW 28.5 km/h 28.5 km/h 69 % 0 mm 0.0 W/m2 CLR
01:25 -10.4 °C -13.4 °C 34784.4 hPa NW 29.8 km/h 29.8 km/h 69 % 0 mm 0.0 W/m2 CLR
01:27 -10.4 °C -13.4 °C 34784.4 hPa NNW 26.9 km/h 26.9 km/h 69 % 0 mm 0.0 W/m2 CLR
01:30 -10.4 °C -13.4 °C 34784.4 hPa NW 29.8 km/h 29.8 km/h 69 % 0 mm 0.0 W/m2 CLR
01:35 -10.4 °C -13.4 °C 34784.4 hPa NNW 26.9 km/h 26.9 km/h 69 % 0 mm 0.0 W/m2 CLR
01:40 -10.4 °C -13.4 °C 34784.4 hPa NW 23.8 km/h 23.8 km/h 69 % 0 mm 0.0 W/m2 CLR
01:43 -10.4 °C -13.4 °C 34774.2 hPa NW 23.8 km/h 23.8 km/h 69 % 0 mm 0.0 W/m2 CLR
01:44 -10.4 °C -13.4 °C 34774.2 hPa NW 26.9 km/h 26.9 km/h 69 % 0 mm 0.0 W/m2 CLR
01:49 -10.1 °C -13.2 °C 34774.2 hPa NW 28.5 km/h 28.5 km/h 69 % 0 mm 0.0 W/m2 CLR
01:54 -10.1 °C -13.2 °C 34774.2 hPa NW 29.8 km/h 29.8 km/h 69 % 0 mm 0.0 W/m2 CLR
01:57 -10.4 °C -13.4 °C 34774.2 hPa NW 23.8 km/h 23.8 km/h 69 % 0 mm 0.0 W/m2 CLR
02:00 -10.4 °C -13.4 °C 34774.2 hPa WNW 23.8 km/h 23.8 km/h 69 % 0 mm 0.0 W/m2 CLR
02:02 -10.4 °C -13.4 °C 34774.2 hPa WNW 28.5 km/h 28.5 km/h 69 % 0 mm 0.0 W/m2 CLR
02:07 -10.4 °C -13.4 °C 34784.4 hPa WNW 18.2 km/h 18.2 km/h 69 % 0 mm 0.0 W/m2 CLR
02:08 -10.4 °C -13.4 °C 34784.4 hPa West 17.9 km/h   69 % 0 mm 0.0 W/m2 CLR
02:12 -10.7 °C -13.8 °C 34784.4 hPa WSW 6 km/h 6 km/h 69 % 0 mm 0.0 W/m2 CLR
02:16 -11 °C -14.1 °C 34784.4 hPa Calm     69 % 0 mm 0.0 W/m2 CLR
02:17 -11 °C -13.9 °C 34784.4 hPa Calm     70 % 0 mm 0.0 W/m2 CLR
02:22 -11.3 °C -14.1 °C 34774.2 hPa West 15 km/h 15 km/h 71 % 0 mm 0.0 W/m2 CLR
02:25 -11.3 °C -14.1 °C 34774.2 hPa WNW 15 km/h 15 km/h 71 % 0 mm 0.0 W/m2 CLR
02:29 -11.6 °C -14.3 °C 34774.2 hPa West 20.9 km/h 20.9 km/h 72 % 0 mm 0.0 W/m2 CLR
02:34 -11.9 °C -14.6 °C 34774.2 hPa WNW 20.9 km/h 20.9 km/h 72 % 0 mm 0.0 W/m2 CLR
02:39 -11.6 °C -14.3 °C 34774.2 hPa NW 26.9 km/h 26.9 km/h 72 % 0 mm 0.0 W/m2 CLR
02:40 -11.6 °C -14.3 °C 34774.2 hPa NW 23.8 km/h 23.8 km/h 72 % 0 mm 0.0 W/m2 CLR
02:45 -11.6 °C -14.3 °C 34774.2 hPa WNW 23.8 km/h 23.8 km/h 72 % 0 mm 0.0 W/m2 CLR
02:46 -11.6 °C -14.3 °C 34774.2 hPa WNW 23.8 km/h 23.8 km/h 72 % 0 mm 0.0 W/m2 CLR
02:51 -11.6 °C -14.3 °C 34774.2 hPa WNW 26.9 km/h 26.9 km/h 72 % 0 mm 0.0 W/m2 CLR
02:57 -11.6 °C -14.3 °C 34774.2 hPa West 25.9 km/h 25.9 km/h 72 % 0 mm 0.0 W/m2 CLR
03:00 -11.6 °C -14.3 °C 34774.2 hPa WNW 26.9 km/h 26.9 km/h 72 % 0 mm 0.0 W/m2 CLR
03:02 -11.6 °C -14.3 °C 34774.2 hPa West 29.8 km/h 29.8 km/h 72 % 0 mm 0.0 W/m2 CLR
03:07 -11.3 °C -14 °C 34774.2 hPa WNW 23.8 km/h 23.8 km/h 72 % 0 mm 0.0 W/m2 CLR
03:12 -10.7 °C -13.3 °C 34774.2 hPa West 29.8 km/h 29.8 km/h 73 % 0 mm 0.0 W/m2 CLR
03:18 -10.4 °C -13 °C 34774.2 hPa West 25.9 km/h 25.9 km/h 73 % 0 mm 0.0 W/m2 CLR
03:23 -10.7 °C -13.3 °C 34774.2 hPa WNW 26.9 km/h 26.9 km/h 73 % 0 mm 0.0 W/m2 CLR
03:24 -10.7 °C -13.3 °C 34774.2 hPa West 26.9 km/h 26.9 km/h 73 % 0 mm 0.0 W/m2 CLR
03:29 -10.7 °C -13.3 °C 34774.2 hPa WNW 29.8 km/h 29.8 km/h 73 % 0 mm 0.0 W/m2 CLR
03:32 -10.7 °C -13.3 °C 34774.2 hPa WNW 29.8 km/h 29.8 km/h 73 % 0 mm 0.0 W/m2 CLR
03:35 -11 °C -13.6 °C 34774.2 hPa WNW 23.8 km/h 23.8 km/h 73 % 0 mm 0.0 W/m2 CLR
03:40 -11 °C -13.7 °C 34774.2 hPa WNW 29.8 km/h 29.8 km/h 72 % 0 mm 0.0 W/m2 CLR
03:45 -11 °C -13.7 °C 34774.2 hPa WNW 20.9 km/h 20.9 km/h 72 % 0 mm 0.0 W/m2 CLR
03:46 -11 °C -13.7 °C 34774.2 hPa WNW 25.9 km/h 25.9 km/h 72 % 0 mm 0.0 W/m2 CLR
03:51 -11 °C -13.8 °C 34760.7 hPa NW 26.9 km/h 26.9 km/h 71 % 0 mm 0.0 W/m2 CLR
03:52 -11 °C -13.8 °C 34760.7 hPa WNW 29.8 km/h 29.8 km/h 71 % 0 mm 0.0 W/m2 CLR
03:56 -11 °C -13.8 °C 34760.7 hPa NW 26.9 km/h 26.9 km/h 71 % 0 mm 0.0 W/m2 CLR
03:57 -11 °C -13.8 °C 34760.7 hPa WNW 29.8 km/h 29.8 km/h 71 % 0 mm 0.0 W/m2 CLR
04:02 -11 °C -13.8 °C 34760.7 hPa NW 26.9 km/h 26.9 km/h 71 % 0 mm 0.0 W/m2 CLR
04:03 -11 °C -13.8 °C 34760.7 hPa WNW 26.9 km/h 26.9 km/h 71 % 0 mm 0.0 W/m2 CLR
04:09 -11 °C -13.8 °C 34760.7 hPa NW 29.8 km/h 29.8 km/h 71 % 0 mm 0.0 W/m2 CLR
04:12 -11 °C -13.8 °C 34760.7 hPa NW 20.9 km/h 20.9 km/h 71 % 0 mm 0.0 W/m2 CLR
04:15 -11 °C -13.8 °C 34750.5 hPa WNW 23.8 km/h 23.8 km/h 71 % 0 mm 0.0 W/m2 CLR
04:20 -11.3 °C -14.1 °C 34750.5 hPa WNW 26.9 km/h 26.9 km/h 71 % 0 mm 0.0 W/m2 CLR
04:21 -11.3 °C -14.1 °C 34750.5 hPa WNW 29.8 km/h 29.8 km/h 71 % 0 mm 0.0 W/m2 CLR
04:26 -11.6 °C -14.3 °C 34750.5 hPa West 20.9 km/h 20.9 km/h 72 % 0 mm 0.0 W/m2 CLR
04:31 -11.6 °C -14.3 °C 34750.5 hPa WNW 29.8 km/h 29.8 km/h 72 % 0 mm 0.0 W/m2 CLR
04:32 -11.6 °C -14.2 °C 34750.5 hPa WNW 26.9 km/h 26.9 km/h 73 % 0 mm 0.0 W/m2 CLR
04:37 -11.6 °C -14.2 °C 34750.5 hPa WNW 29.8 km/h 29.8 km/h 73 % 0 mm 0.0 W/m2 CLR
04:39 -11.6 °C -14.2 °C 34750.5 hPa WNW 29.8 km/h 29.8 km/h 73 % 0 mm 0.0 W/m2 CLR
04:43 -11.6 °C -14.2 °C 34750.5 hPa WNW 32.8 km/h 32.8 km/h 73 % 0 mm 0.0 W/m2 CLR
04:45 -11.3 °C -13.9 °C 34750.5 hPa WNW 31.1 km/h 31.1 km/h 73 % 0 mm 0.0 W/m2 CLR
04:48 -11.3 °C -13.9 °C 34750.5 hPa WNW 29.8 km/h 29.8 km/h 73 % 0 mm 0.0 W/m2 CLR
04:53 -11 °C -13.6 °C 34750.5 hPa NW 29.8 km/h 29.8 km/h 73 % 0 mm 0.0 W/m2 CLR
04:54 -11 °C -13.6 °C 34750.5 hPa NW 26.9 km/h 26.9 km/h 73 % 0 mm 0.0 W/m2 CLR
04:59 -11 °C -13.7 °C 34750.5 hPa WNW 25.9 km/h 25.9 km/h 72 % 0 mm 0.0 W/m2 CLR
05:00 -11 °C -13.7 °C 34750.5 hPa NW 26.9 km/h 26.9 km/h 72 % 0 mm 0.0 W/m2 CLR
05:05 -11.3 °C -13.9 °C 34750.5 hPa NW 26.9 km/h 26.9 km/h 73 % 0 mm 0.0 W/m2 CLR
05:10 -11.3 °C -14 °C 34750.5 hPa NW 35.7 km/h 35.7 km/h 72 % 0 mm 0.0 W/m2 CLR
05:14 -11.3 °C -14 °C 34750.5 hPa NW 26.9 km/h 26.9 km/h 72 % 0 mm 0.0 W/m2 CLR
05:15 -11.3 °C -14 °C 34740.4 hPa NW 29.8 km/h 29.8 km/h 72 % 0 mm 0.0 W/m2 CLR
05:16 -11 °C -13.7 °C 34750.5 hPa NW 26.9 km/h 26.9 km/h 72 % 0 mm 0.0 W/m2 CLR
05:17 -11 °C -13.7 °C 34750.5 hPa NW 26.9 km/h 26.9 km/h 72 % 0 mm 0.0 W/m2 CLR
05:20 -11 °C -13.7 °C 34740.4 hPa NW 29.8 km/h 29.8 km/h 72 % 0 mm 0.0 W/m2 CLR
05:24 -11 °C -13.7 °C 34740.4 hPa NW 23.8 km/h 23.8 km/h 72 % 0 mm 0.0 W/m2 CLR
05:28 -11 °C -13.7 °C 34740.4 hPa WNW 23.8 km/h 23.8 km/h 72 % 0 mm 0.0 W/m2 CLR
05:32 -11.3 °C -14 °C 34740.4 hPa WNW 20.9 km/h 20.9 km/h 72 % 0 mm 0.0 W/m2 CLR
05:36 -11.3 °C -13.9 °C 34740.4 hPa NW 29.8 km/h 29.8 km/h 73 % 0 mm 0.0 W/m2 CLR
05:40 -11.3 °C -13.9 °C 34740.4 hPa WNW 20.9 km/h 20.9 km/h 73 % 0 mm 0.0 W/m2 CLR
05:42 -11.6 °C -14.2 °C 34740.4 hPa NW 23.8 km/h 23.8 km/h 73 % 0 mm 0.0 W/m2 CLR
05:43 -11.6 °C -14.2 °C 34740.4 hPa NW 23.8 km/h 23.8 km/h 73 % 0 mm 0.0 W/m2 CLR
05:47 -11.6 °C -14.2 °C 34726.8 hPa NW 26.9 km/h 26.9 km/h 73 % 0 mm 0.0 W/m2 CLR
05:48 -11.6 °C -14.2 °C 34740.4 hPa NW 41.4 km/h 41.4 km/h 73 % 0 mm 0.0 W/m2 CLR
05:50 -11.6 °C -14.2 °C 34740.4 hPa NW 38.8 km/h 38.8 km/h 73 % 0 mm 0.0 W/m2 CLR
05:55 -11.6 °C -14.3 °C 34726.8 hPa NW 26.9 km/h 26.9 km/h 72 % 0 mm 0.0 W/m2 CLR
06:02 -11.6 °C -14.3 °C 34726.8 hPa NNW 29.8 km/h 29.8 km/h 72 % 0 mm 0.0 W/m2 CLR
06:03 -11.6 °C -14.3 °C 34726.8 hPa NW 29.8 km/h 29.8 km/h 72 % 0 mm 0.0 W/m2 CLR
06:08 -11.6 °C -14.2 °C 34726.8 hPa NW 29.8 km/h 29.8 km/h 73 % 0 mm 0.0 W/m2 CLR
06:13 -11.6 °C -14.2 °C 34726.8 hPa NW 29.8 km/h 29.8 km/h 73 % 0 mm 0.0 W/m2 CLR
06:18 -11.6 °C -14.2 °C 34726.8 hPa NW 29.8 km/h 29.8 km/h 73 % 0 mm 0.0 W/m2 CLR
06:23 -11.6 °C -14.2 °C 34726.8 hPa NW 26.9 km/h 26.9 km/h 73 % 0 mm 0.0 W/m2 CLR
06:25 -11.3 °C -14 °C 34726.8 hPa NW 26.9 km/h 26.9 km/h 72 % 0 mm 0.0 W/m2 CLR
06:29 -11.3 °C -13.9 °C 34726.8 hPa NW 29.8 km/h 29.8 km/h 73 % 0 mm 0.0 W/m2 CLR
06:30 -11.3 °C -14 °C 34726.8 hPa WNW 29.8 km/h 29.8 km/h 72 % 0 mm 0.0 W/m2 CLR
06:35 -11.3 °C -14 °C 34726.8 hPa NNW 23.8 km/h 23.8 km/h 72 % 0 mm 0.0 W/m2 CLR
06:37 -11.3 °C -13.9 °C 34726.8 hPa NW 23.3 km/h 23.3 km/h 73 % 0 mm 0.0 W/m2 CLR
06:41 -11.3 °C -13.9 °C 34726.8 hPa NW 29.8 km/h 29.8 km/h 73 % 0 mm 0.0 W/m2 CLR
06:43 -11.3 °C -13.9 °C 34726.8 hPa NW 29.8 km/h 29.8 km/h 73 % 0 mm 0.0 W/m2 CLR
06:48 -11.3 °C -13.9 °C 34726.8 hPa NW 32.8 km/h 32.8 km/h 73 % 0 mm 0.0 W/m2 CLR
06:53 -11.3 °C -13.9 °C 34726.8 hPa NW 29.8 km/h 29.8 km/h 73 % 0 mm 0.0 W/m2 CLR
06:54 -11.3 °C -13.9 °C 34726.8 hPa NW 29.8 km/h 29.8 km/h 73 % 0 mm 0.0 W/m2 CLR
06:58 -11 °C -13.6 °C 34726.8 hPa NW 29.8 km/h 29.8 km/h 73 % 0 mm 0.0 W/m2 CLR
06:59 -11 °C -13.6 °C 34726.8 hPa NW 29.8 km/h 29.8 km/h 73 % 0 mm 0.0 W/m2 CLR
07:04 -11 °C -13.5 °C 34726.8 hPa NW 32.8 km/h 32.8 km/h 74 % 0 mm 0.0 W/m2 CLR
07:05 -11 °C -13.5 °C 34726.8 hPa NNW 35.7 km/h 35.7 km/h 74 % 0 mm 0.0 W/m2 CLR
07:08 -11 °C -13.5 °C 34726.8 hPa NNW 32.8 km/h 32.8 km/h 74 % 0 mm 0.0 W/m2 CLR
07:10 -10.7 °C -13.3 °C 34726.8 hPa NW 23.8 km/h 23.8 km/h 73 % 0 mm 0.0 W/m2 CLR
07:15 -10.7 °C -13.2 °C 34726.8 hPa NNW 26.9 km/h 26.9 km/h 74 % 0 mm 0.0 W/m2 CLR
07:16 -10.7 °C -13.2 °C 34726.8 hPa NW 26.9 km/h 26.9 km/h 74 % 0 mm 0.0 W/m2 CLR
07:17 -10.7 °C -13.1 °C 34726.8 hPa NNW 26.9 km/h 26.9 km/h 75 % 0 mm 0.0 W/m2 CLR
07:22 -10.7 °C -13.1 °C 34726.8 hPa NNW 20.9 km/h 20.9 km/h 75 % 0 mm 0.0 W/m2 CLR
07:24 -10.7 °C -13.1 °C 34726.8 hPa NW 26.9 km/h 26.9 km/h 75 % 0 mm 0.0 W/m2 CLR
07:28 -11 °C -13.3 °C 34726.8 hPa NW 29.8 km/h 29.8 km/h 76 % 0 mm 0.0 W/m2 CLR
07:32 -11 °C -13.3 °C 34726.8 hPa NW 32.8 km/h 32.8 km/h 76 % 0 mm 0.0 W/m2 CLR
07:34 -11 °C -13.4 °C 34726.8 hPa NW 23.8 km/h 23.8 km/h 75 % 0 mm 0.0 W/m2 CLR
07:37 -11 °C -13.4 °C 34716.7 hPa NW 26.9 km/h 26.9 km/h 75 % 0 mm 0.0 W/m2 CLR
07:39 -11 °C -13.5 °C 34716.7 hPa NW 23.8 km/h 23.8 km/h 74 % 0 mm 0.0 W/m2 CLR
07:44 -11 °C -13.4 °C 34716.7 hPa NW 20.9 km/h 20.9 km/h 75 % 0 mm 0.0 W/m2 CLR
07:46 -11 °C -13.4 °C 34726.8 hPa NW 20.9 km/h 20.9 km/h 75 % 0 mm 0.0 W/m2 CLR
07:48 -11 °C -13.4 °C 34716.7 hPa NNW 20.9 km/h 20.9 km/h 75 % 0 mm 0.0 W/m2 CLR
07:50 -11 °C -13.4 °C 34716.7 hPa NW 23.8 km/h 23.8 km/h 75 % 0 mm 0.0 W/m2 CLR
07:53 -11 °C -13.4 °C 34726.8 hPa NW 26.9 km/h 26.9 km/h 75 % 0 mm 0.0 W/m2 CLR
07:56 -11 °C -13.3 °C 34726.8 hPa NW 23.8 km/h 23.8 km/h 76 % 0 mm 0.0 W/m2 CLR
07:59 -11.3 °C -13.6 °C 34726.8 hPa NNW 23.8 km/h 23.8 km/h 76 % 0 mm 0.0 W/m2 CLR
08:03 -11 °C -13.3 °C 34726.8 hPa NNW 23.8 km/h 23.8 km/h 76 % 0 mm 0.0 W/m2 CLR
08:08 -11 °C -13.4 °C 34726.8 hPa NW 26.9 km/h 26.9 km/h 75 % 0 mm 0.0 W/m2 CLR
08:09 -11 °C -13.4 °C 34726.8 hPa NNW 26.9 km/h 26.9 km/h 75 % 0 mm 0.0 W/m2 CLR
08:10 -11 °C -13.4 °C 34726.8 hPa NW 23.8 km/h 23.8 km/h 75 % 0 mm 0.0 W/m2 CLR
08:13 -11 °C -13.4 °C 34716.7 hPa NNW 26.9 km/h 26.9 km/h 75 % 0 mm 0.0 W/m2 CLR
08:14 -11 °C -13.4 °C 34716.7 hPa NNW 20.8 km/h 20.8 km/h 75 % 0 mm 0.0 W/m2 CLR
08:17 -11 °C -13.4 °C 34716.7 hPa NW 23.8 km/h 23.8 km/h 75 % 0 mm 0.0 W/m2 OVC
08:19 -11 °C -13.4 °C 34716.7 hPa NNW 26.9 km/h 26.9 km/h 75 % 0 mm 0.0 W/m2 OVC
08:20 -11 °C -13.5 °C 34716.7 hPa NNW 26.9 km/h 26.9 km/h 74 % 0 mm 0.0 W/m2 OVC
08:24 -11 °C -13.5 °C 34716.7 hPa NNW 32.8 km/h 32.8 km/h 74 % 0 mm 0.0 W/m2 OVC
08:27 -11 °C -13.5 °C 34716.7 hPa NW 28.5 km/h 28.5 km/h 74 % 0 mm 5.0 W/m2 OVC
08:31 -11 °C -13.6 °C 34716.7 hPa NW 32.8 km/h 32.8 km/h 73 % 0 mm 7.0 W/m2 BKN
08:33 -10.7 °C -13.3 °C 34716.7 hPa NW 38.8 km/h 38.8 km/h 73 % 0 mm 9.0 W/m2 BKN
08:38 -10.7 °C -13.4 °C 34716.7 hPa NNW 29.8 km/h 29.8 km/h 72 % 0 mm 12.0 W/m2 BKN
08:39 -10.7 °C -13.4 °C 34716.7 hPa NNW 35.7 km/h 35.7 km/h 72 % 0 mm 12.0 W/m2 BKN
08:40 -10.7 °C -13.4 °C 34726.8 hPa NW 35.7 km/h 35.7 km/h 72 % 0 mm 14.0 W/m2 BKN
08:45 -10.4 °C -13.2 °C 34716.7 hPa NW 32.8 km/h 32.8 km/h 71 % 0 mm 16.0 W/m2 BKN
08:46 -10.4 °C -13.2 °C 34716.7 hPa NNW 36.2 km/h 36.2 km/h 71 % 0 mm 18.0 W/m2 BKN
08:48 -10.4 °C -13.2 °C 34726.8 hPa NNW 41.7 km/h 41.7 km/h 71 % 0 mm 18.0 W/m2 BKN
08:51 -10.4 °C -13.2 °C 34716.7 hPa NNW 29.8 km/h 30.3 km/h 71 % 0 mm 19.0 W/m2 BKN
08:53 -10.4 °C -13.2 °C 34716.7 hPa NNW 47.6 km/h 47.6 km/h 71 % 0 mm 21.0 W/m2 BKN
08:56 -10.4 °C -13.2 °C 34726.8 hPa NNW 29.8 km/h 29.8 km/h 71 % 0 mm 25.0 W/m2 BKN
09:01 -10.4 °C -13.3 °C 34726.8 hPa NNW 44.7 km/h 44.7 km/h 70 % 0 mm 32.0 W/m2 BKN
09:02 -10.1 °C -12.9 °C 34726.8 hPa NNW 44.7 km/h 44.7 km/h 71 % 0 mm 35.0 W/m2 BKN
09:05 -10.1 °C -13.1 °C 34726.8 hPa North 47.6 km/h 47.6 km/h 70 % 0 mm 40.0 W/m2 BKN
09:07 -10.1 °C -13.1 °C 34726.8 hPa NNW 59.5 km/h 59.5 km/h 70 % 0 mm 44.0 W/m2 BKN
09:12 -10.1 °C -13.2 °C 34740.4 hPa North 47.6 km/h 47.6 km/h 69 % 0 mm 58.0 W/m2 SCT
09:14 -9.8 °C -12.9 °C 34726.8 hPa NNW 41.7 km/h 41.7 km/h 69 % 0 mm 60.0 W/m2 SCT
09:18 -9.8 °C -13 °C 34740.4 hPa NW 53.6 km/h 53.6 km/h 68 % 0 mm 70.0 W/m2 FEW
09:19 -9.8 °C -13 °C 34726.8 hPa North 53.6 km/h 53.6 km/h 68 % 0 mm 70.0 W/m2 FEW
09:24 -9.8 °C -13 °C 34740.4 hPa North 50.7 km/h 50.7 km/h 68 % 0 mm 84.0 W/m2 FEW
09:27 -9.8 °C -13.1 °C 34726.8 hPa NNW 50.7 km/h 50.7 km/h 67 % 0 mm 90.0 W/m2 FEW
09:29 -9.8 °C -13.1 °C 34726.8 hPa NNW 38.8 km/h 38.8 km/h 67 % 0 mm 95.0 W/m2 FEW
09:34 -9.4 °C -12.8 °C 34726.8 hPa NW 50.7 km/h 50.7 km/h 67 % 0 mm 109.0 W/m2 CLR
09:38 -9.8 °C -13.1 °C 34726.8 hPa North 44.7 km/h 44.7 km/h 67 % 0 mm 130.0 W/m2 CLR
09:43 -9.4 °C -12.8 °C 34726.8 hPa NW 50.7 km/h 50.7 km/h 67 % 0 mm 142.0 W/m2 CLR
09:46 -9.4 °C -12.8 °C 34726.8 hPa NNW 44.7 km/h 44.7 km/h 67 % 0 mm 151.0 W/m2 CLR
09:48 -9.4 °C -12.9 °C 34726.8 hPa NNW 62.6 km/h 62.6 km/h 66 % 0 mm 158.0 W/m2 CLR
09:52 -9.4 °C -12.9 °C 34726.8 hPa NNW 56.6 km/h 56.6 km/h 66 % 0 mm 165.0 W/m2 CLR
09:54 -9.4 °C -12.9 °C 34726.8 hPa NNW 50.7 km/h 50.7 km/h 66 % 0 mm 174.0 W/m2 CLR
09:58 -9.4 °C -12.9 °C 34726.8 hPa NNW 50.7 km/h 50.7 km/h 66 % 0 mm 178.0 W/m2 CLR
10:01 -9.4 °C -13.1 °C 34726.8 hPa NNW 50.7 km/h 50.7 km/h 65 % 0 mm 181.0 W/m2 CLR
10:05 -9.1 °C -12.8 °C 34726.8 hPa NW 50.7 km/h 50.7 km/h 65 % 0 mm 163.0 W/m2 CLR
10:10 -9.1 °C -12.8 °C 34726.8 hPa NNW 56.6 km/h 56.6 km/h 65 % 0 mm 148.0 W/m2 CLR
10:11 -9.1 °C -12.8 °C 34726.8 hPa NW 57 km/h 57 km/h 65 % 0 mm 163.0 W/m2 CLR
10:13 -9.1 °C -12.8 °C 34716.7 hPa NNW 59.5 km/h 59.5 km/h 65 % 0 mm 213.0 W/m2 CLR
10:18 -9.1 °C -12.9 °C 34716.7 hPa NNW 62.1 km/h 62.1 km/h 64 % 0 mm 153.0 W/m2 CLR
10:20 -9.1 °C -12.9 °C 34716.7 hPa NW 62.6 km/h 62.6 km/h 64 % 0 mm 146.0 W/m2 CLR
10:25 -8.8 °C -12.7 °C 34716.7 hPa NNW 72.6 km/h 72.6 km/h 63 % 0 mm 234.0 W/m2 CLR
10:30 -8.8 °C -12.7 °C 34716.7 hPa NW 68.6 km/h 68.6 km/h 63 % 0 mm 250.0 W/m2 CLR
10:31 -8.8 °C -12.7 °C 34716.7 hPa NW 57 km/h 57 km/h 63 % 0 mm 253.0 W/m2 CLR
10:36 -8.8 °C -12.9 °C 34716.7 hPa NW 62.6 km/h 62.6 km/h 62 % 0 mm 265.0 W/m2 CLR
10:37 -8.8 °C -12.9 °C 34716.7 hPa NW 53.6 km/h 53.6 km/h 62 % 0 mm 269.0 W/m2 CLR
10:42 -8.8 °C -13 °C 34716.7 hPa NW 59.5 km/h 59.5 km/h 61 % 0 mm 281.0 W/m2 CLR
10:44 -8.8 °C -13 °C 34716.7 hPa NW 53.6 km/h 53.6 km/h 61 % 0 mm 285.0 W/m2 CLR
10:45 -8.5 °C -12.7 °C 34716.7 hPa NW 56.6 km/h 56.6 km/h 61 % 0 mm 288.0 W/m2 CLR
10:49 -8.5 °C -12.8 °C 34716.7 hPa NW 44.7 km/h 44.7 km/h 60 % 0 mm 294.0 W/m2 CLR
10:54 -8.5 °C -13 °C 34716.7 hPa NNW 65.5 km/h 65.5 km/h 59 % 0 mm 306.0 W/m2 CLR
10:56 -8.5 °C -13 °C 34716.7 hPa NNW 44.7 km/h 44.7 km/h 59 % 0 mm 309.0 W/m2 CLR
10:57 -8.5 °C -13 °C 34716.7 hPa NNW 44.7 km/h 44.7 km/h 59 % 0 mm 309.0 W/m2 CLR
10:58 -8.2 °C -12.8 °C 34716.7 hPa NNW 68.6 km/h 68.6 km/h 58 % 0 mm 315.0 W/m2 CLR
11:02 -8.2 °C -12.8 °C 34716.7 hPa NW 65.5 km/h 65.5 km/h 58 % 0 mm 323.0 W/m2 CLR
11:05 -8.2 °C -12.8 °C 34716.7 hPa NNW 47.6 km/h 47.6 km/h 58 % 0 mm 327.0 W/m2 CLR
11:07 -8.2 °C -13 °C 34716.7 hPa NW 71.5 km/h 71.5 km/h 57 % 0 mm 332.0 W/m2 CLR
11:12 -8.2 °C -13 °C 34716.7 hPa NNW 59.5 km/h 59.5 km/h 57 % 0 mm 339.0 W/m2 CLR
11:17 -7.9 °C -12.8 °C 34716.7 hPa NW 71.5 km/h 71.5 km/h 56 % 0 mm 339.0 W/m2 CLR
11:20 -7.9 °C -12.8 °C 34716.7 hPa NNW 62.6 km/h 62.6 km/h 56 % 0 mm 345.0 W/m2 CLR
11:25 -7.9 °C -12.8 °C 34703.1 hPa NW 62.6 km/h 62.6 km/h 56 % 0 mm 352.0 W/m2 CLR
11:26 -7.9 °C -12.8 °C 34716.7 hPa NW 80.5 km/h 80.5 km/h 56 % 0 mm 355.0 W/m2 CLR
11:31 -7.9 °C -13 °C 34716.7 hPa NW 56.6 km/h 56.6 km/h 55 % 0 mm 364.0 W/m2 CLR
11:35 -7.9 °C -13 °C 34703.1 hPa NW 44.1 km/h 44.1 km/h 55 % 0 mm 371.0 W/m2 CLR
11:39 -7.9 °C -13.3 °C 34703.1 hPa NNW 65.5 km/h 65.5 km/h 53 % 0 mm 373.0 W/m2 CLR
11:41 -7.6 °C -13 °C 34703.1 hPa NW 53.6 km/h 53.6 km/h 53 % 0 mm 376.0 W/m2 CLR
11:44 -7.6 °C -13 °C 34703.1 hPa NW 65.5 km/h 65.5 km/h 53 % 0 mm 380.0 W/m2 CLR
11:46 -7.6 °C -13 °C 34703.1 hPa NW 47.6 km/h 47.6 km/h 53 % 0 mm 383.0 W/m2 CLR
11:49 -7.6 °C -13.2 °C 34703.1 hPa NW 53.6 km/h 53.6 km/h 52 % 0 mm 385.0 W/m2 CLR
11:50 -7.6 °C -13.2 °C 34703.1 hPa NW 53.6 km/h 53.6 km/h 52 % 0 mm 387.0 W/m2 CLR
11:55 -7.6 °C -13.2 °C 34703.1 hPa NW 68.6 km/h 68.6 km/h 52 % 0 mm 390.0 W/m2 CLR
11:56 -7.6 °C -13.2 °C 34693 hPa NW 62.6 km/h 62.6 km/h 52 % 0 mm 396.0 W/m2 CLR
11:59 -7.6 °C -13.2 °C 34693 hPa NNW 53.6 km/h 53.6 km/h 52 % 0 mm 397.0 W/m2 CLR
12:04 -7.3 °C -13.1 °C 34693 hPa North 50.7 km/h 50.7 km/h 51 % 0 mm 406.0 W/m2 CLR
12:08 -7.3 °C -13.2 °C 34693 hPa North 62.6 km/h 62.6 km/h 50 % 0 mm 410.0 W/m2 CLR
12:11 -7.3 °C -13.2 °C 34693 hPa NNW 74.5 km/h 74.5 km/h 50 % 0 mm 413.0 W/m2 CLR
12:13 -7.3 °C -13.2 °C 34693 hPa NW 86.4 km/h 86.4 km/h 50 % 0 mm 418.0 W/m2 CLR
12:18 -7.3 °C -13.2 °C 34693 hPa NW 77.7 km/h 77.7 km/h 50 % 0 mm 417.0 W/m2 CLR
12:19 -7.3 °C -13.2 °C 34693 hPa North 74.5 km/h 74.5 km/h 50 % 0 mm 417.0 W/m2 CLR
12:24 -7.6 °C -13.5 °C 34693 hPa North 68.6 km/h 68.6 km/h 50 % 0 mm 424.0 W/m2 CLR
12:26 -7.3 °C -13.2 °C 34682.8 hPa NW 50.7 km/h 50.7 km/h 50 % 0 mm 425.0 W/m2 CLR
12:29 -7.3 °C -13.2 °C 34682.8 hPa NW 74.5 km/h 74.5 km/h 50 % 0 mm 429.0 W/m2 CLR
12:31 -7.3 °C -13.2 °C 34682.8 hPa NNW 68.6 km/h 68.6 km/h 50 % 0 mm 429.0 W/m2 CLR
12:36 -7.3 °C -13.2 °C 34682.8 hPa NNW 86.4 km/h 86.4 km/h 50 % 0 mm 429.0 W/m2 CLR
12:40 -7.3 °C -13.2 °C 34682.8 hPa NNW 65.5 km/h 65.5 km/h 50 % 0 mm 434.0 W/m2 CLR
12:45 -7.3 °C -13.2 °C 34669.3 hPa NNW 77.4 km/h 77.4 km/h 50 % 0 mm 434.0 W/m2 CLR
12:47 -7.3 °C -13.2 °C 34669.3 hPa NNW 59.5 km/h 59.5 km/h 50 % 0 mm 436.0 W/m2 CLR
12:49 -7.3 °C -13.4 °C 34669.3 hPa NNW 77.4 km/h 77.4 km/h 49 % 0 mm 434.0 W/m2 CLR
12:54 -7.3 °C -13.2 °C 34669.3 hPa NW 62.6 km/h 62.6 km/h 50 % 0 mm 434.0 W/m2 CLR
12:56 -7.3 °C -13.2 °C 34669.3 hPa North 69.8 km/h 69.8 km/h 50 % 0 mm 434.0 W/m2 CLR
13:01 -7.3 °C -13.2 °C 34669.3 hPa North 72.6 km/h 72.6 km/h 50 % 0 mm 436.0 W/m2 CLR
13:03 -7.3 °C -13.4 °C 34669.3 hPa NNW 77.4 km/h 77.4 km/h 49 % 0 mm 434.0 W/m2 CLR
13:08 -7.3 °C -13.4 °C 34659.1 hPa NNW 72.6 km/h 72.6 km/h 49 % 0 mm 436.0 W/m2 CLR
13:13 -7.3 °C -13.4 °C 34659.1 hPa NW 67.3 km/h 67.3 km/h 49 % 0 mm 434.0 W/m2 CLR
13:14 -7.3 °C -13.4 °C 34659.1 hPa NNW 64.7 km/h 64.7 km/h 49 % 0 mm 434.0 W/m2 CLR
13:15 -7.3 °C -13.4 °C 34659.1 hPa NNW 83.4 km/h 83.4 km/h 49 % 0 mm 436.0 W/m2 CLR
13:16 -7.3 °C -13.4 °C 34659.1 hPa NNW 77.4 km/h 77.4 km/h 49 % 0 mm 436.0 W/m2 CLR
13:21 -7.3 °C -13.4 °C 34659.1 hPa NNW 80.5 km/h 80.5 km/h 49 % 0 mm 432.0 W/m2 CLR
13:22 -7.3 °C -13.4 °C 34645.6 hPa NNW 80.5 km/h 80.5 km/h 49 % 0 mm 425.0 W/m2 CLR
13:25 -7.3 °C -13.4 °C 34645.6 hPa NNW 83.4 km/h 83.4 km/h 49 % 0 mm 418.0 W/m2 CLR
13:28 -7.3 °C -13.6 °C 34645.6 hPa NNW 86.4 km/h 86.4 km/h 48 % 0 mm 424.0 W/m2 CLR
13:33 -7 °C -13.2 °C 34645.6 hPa NNW 77.4 km/h 77.4 km/h 48 % 0 mm 422.0 W/m2 CLR
13:34 -7 °C -13.2 °C 34645.6 hPa NNW 83.4 km/h 83.4 km/h 48 % 0 mm 425.0 W/m2 CLR
13:37 -7 °C -13.2 °C 34645.6 hPa NNW 80.5 km/h 80.5 km/h 48 % 0 mm 420.0 W/m2 CLR
13:38 -7 °C -13.2 °C 34635.4 hPa WNW 80.5 km/h 80.5 km/h 48 % 0 mm 418.0 W/m2 CLR
13:42 -7 °C -13.2 °C 34645.6 hPa NNW 68.6 km/h 68.6 km/h 48 % 0 mm 422.0 W/m2 CLR
13:47 -7 °C -13.2 °C 34635.4 hPa WNW 83.4 km/h 83.4 km/h 48 % 0 mm 417.0 W/m2 CLR
13:48 -7 °C -13.2 °C 34645.6 hPa NW 59.5 km/h 59.5 km/h 48 % 0 mm 420.0 W/m2 CLR
13:52 -7.3 °C -13.6 °C 34645.6 hPa NNW 68.6 km/h 68.6 km/h 48 % 0 mm 418.0 W/m2 CLR
13:55 -7 °C -13.2 °C 34635.4 hPa NNW 62.6 km/h 62.6 km/h 48 % 0 mm 418.0 W/m2 CLR
13:58 -7 °C -13.4 °C 34635.4 hPa NNW 65.5 km/h 65.5 km/h 47 % 0 mm 420.0 W/m2 CLR
13:59 -7 °C -13.4 °C 34635.4 hPa NNW 65.5 km/h 65.5 km/h 47 % 0 mm 420.0 W/m2 CLR
14:04 -7 °C -13.4 °C 34635.4 hPa North 74.5 km/h 74.5 km/h 47 % 0 mm 417.0 W/m2 CLR
14:09 -7 °C -13.6 °C 34625.2 hPa NNW 74.5 km/h 74.5 km/h 46 % 0 mm 403.0 W/m2 CLR
14:13 -7 °C -13.6 °C 34625.2 hPa North 53.6 km/h 53.6 km/h 46 % 0 mm 397.0 W/m2 CLR
14:16 -7 °C -13.6 °C 34625.2 hPa NNW 53.6 km/h 53.6 km/h 46 % 0 mm 396.0 W/m2 CLR
14:20 -7 °C -13.6 °C 34625.2 hPa NW 56.6 km/h 56.6 km/h 46 % 0 mm 383.0 W/m2 CLR
14:23 -7 °C -13.6 °C 34625.2 hPa NW 33.6 km/h 33.6 km/h 46 % 0 mm 388.0 W/m2 CLR
14:27 -6.7 °C -13.3 °C 34625.2 hPa NW 65.5 km/h 65.5 km/h 46 % 0 mm 385.0 W/m2 CLR
14:28 -6.7 °C -13.5 °C 34625.2 hPa NNW 59.5 km/h 59.5 km/h 45 % 0 mm 385.0 W/m2 CLR
14:33 -7 °C -13.6 °C 34625.2 hPa NNW 56.6 km/h 56.6 km/h 46 % 0 mm 374.0 W/m2 CLR
14:35 -7 °C -13.6 °C 34611.7 hPa NNW 51.8 km/h 51.8 km/h 46 % 0 mm 371.0 W/m2 CLR
14:40 -7 °C -13.8 °C 34625.2 hPa North 86.4 km/h 86.4 km/h 45 % 0 mm 364.0 W/m2 CLR
14:43 -6.7 °C -13.5 °C 34611.7 hPa North 69.8 km/h 69.8 km/h 45 % 0 mm 362.0 W/m2 CLR
14:45 -6.7 °C -13.7 °C 34611.7 hPa NW 74.5 km/h 74.5 km/h 44 % 0 mm 360.0 W/m2 CLR
14:49 -6.7 °C -13.5 °C 34611.7 hPa NNW 71.5 km/h 71.5 km/h 45 % 0 mm 357.0 W/m2 CLR
14:54 -7 °C -13.9 °C 34611.7 hPa North 50.7 km/h 50.7 km/h 44 % 0 mm 350.0 W/m2 CLR
14:59 -7 °C -13.8 °C 34611.7 hPa NNW 56.6 km/h 56.6 km/h 45 % 0 mm 339.0 W/m2 CLR
15:04 -6.7 °C -13.7 °C 34611.7 hPa North 59.5 km/h 59.5 km/h 44 % 0 mm 332.0 W/m2 CLR
15:06 -6.7 °C -13.7 °C 34611.7 hPa North 77.7 km/h 77.7 km/h 44 % 0 mm 332.0 W/m2 CLR
15:09 -6.7 °C -13.7 °C 34611.7 hPa NNW 68.6 km/h 68.6 km/h 44 % 0 mm 327.0 W/m2 CLR
15:12 -6.7 °C -13.5 °C 34611.7 hPa NNW 62.6 km/h 62.6 km/h 45 % 0 mm 320.0 W/m2 CLR
15:16 -6.7 °C -13.7 °C 34611.7 hPa North 50.7 km/h 50.7 km/h 44 % 0 mm 313.0 W/m2 CLR
15:17 -6.7 °C -13.7 °C 34611.7 hPa North 59.5 km/h 59.5 km/h 44 % 0 mm 311.0 W/m2 CLR
15:18 -6.7 °C -13.7 °C 34611.7 hPa North 50.7 km/h 50.7 km/h 44 % 0 mm 309.0 W/m2 CLR
15:23 -6.7 °C -13.7 °C 34601.5 hPa North 65.5 km/h 65.5 km/h 44 % 0 mm 302.0 W/m2 CLR
15:25 -6.7 °C -13.7 °C 34601.5 hPa NNW 56.6 km/h 56.6 km/h 44 % 0 mm 297.0 W/m2 CLR
15:30 -6.7 °C -13.7 °C 34601.5 hPa North 57 km/h 57 km/h 44 % 0 mm 287.0 W/m2 CLR
15:32 -6.7 °C -13.7 °C 34601.5 hPa NNW 56.6 km/h 56.6 km/h 44 % 0 mm 285.0 W/m2 CLR
15:34 -7 °C -13.9 °C 34601.5 hPa NNW 53.6 km/h 53.6 km/h 44 % 0 mm 281.0 W/m2 CLR
15:39 -7 °C -13.9 °C 34591.4 hPa North 68.6 km/h 68.6 km/h 44 % 0 mm 271.0 W/m2 CLR
15:44 -7 °C -13.9 °C 34591.4 hPa North 62.6 km/h 62.6 km/h 44 % 0 mm 260.0 W/m2 CLR
15:48 -7 °C -13.9 °C 34591.4 hPa NNW 53.6 km/h 53.6 km/h 44 % 0 mm 251.0 W/m2 CLR
15:51 -7 °C -13.9 °C 34591.4 hPa North 47.6 km/h 47.6 km/h 44 % 0 mm 241.0 W/m2 CLR
15:56 -7 °C -13.9 °C 34591.4 hPa NNW 62.6 km/h 62.6 km/h 44 % 0 mm 229.0 W/m2 CLR
16:01 -7 °C -13.9 °C 34591.4 hPa North 65.5 km/h 65.5 km/h 44 % 0 mm 216.0 W/m2 CLR
16:06 -7.3 °C -14.2 °C 34591.4 hPa NNW 56.6 km/h 56.6 km/h 44 % 0 mm 206.0 W/m2 CLR
16:11 -7.3 °C -14.1 °C 34591.4 hPa North 51.8 km/h 51.8 km/h 45 % 0 mm 185.0 W/m2 CLR
16:12 -7.3 °C -14.1 °C 34591.4 hPa NW 50.7 km/h 50.7 km/h 45 % 0 mm 181.0 W/m2 CLR
16:15 -7.3 °C -14.2 °C 34591.4 hPa NNW 53.6 km/h 53.6 km/h 44 % 0 mm 176.0 W/m2 CLR
16:17 -7.3 °C -14.2 °C 34591.4 hPa North 53.6 km/h 53.6 km/h 44 % 0 mm 172.0 W/m2 CLR
16:22 -7.3 °C -14.1 °C 34591.4 hPa NNW 44.7 km/h 44.7 km/h 45 % 0 mm 153.0 W/m2 CLR
16:24 -7.3 °C -14.1 °C 34591.4 hPa NNW 35.7 km/h 35.7 km/h 45 % 0 mm 146.0 W/m2 CLR
16:29 -7.3 °C -14.1 °C 34577.8 hPa NNW 29.8 km/h 29.8 km/h 45 % 0 mm 139.0 W/m2 CLR
16:37 -7.6 °C -14.3 °C 34591.4 hPa NNW 38.8 km/h 38.8 km/h 45 % 0 mm 120.0 W/m2 CLR
16:39 -7.6 °C -14.3 °C 34591.4 hPa NNW 29.8 km/h 29.8 km/h 45 % 0 mm 114.0 W/m2 CLR
16:44 -7.6 °C -14.3 °C 34577.8 hPa NNW 33.6 km/h 33.6 km/h 45 % 0 mm 100.0 W/m2 CLR
16:48 -7.6 °C -14.3 °C 34577.8 hPa NNW 47.6 km/h 47.6 km/h 45 % 0 mm 93.0 W/m2 CLR
16:53 -7.6 °C -14.3 °C 34577.8 hPa North 47.6 km/h 47.6 km/h 45 % 0 mm 81.0 W/m2 FEW
16:56 -7.6 °C -14.3 °C 34577.8 hPa NNW 35.7 km/h 35.7 km/h 45 % 0 mm 67.0 W/m2 FEW
17:01 -7.6 °C -14.2 °C 34577.8 hPa NW 32.8 km/h 32.8 km/h 46 % 0 mm 54.0 W/m2 SCT
17:04 -7.6 °C -14.2 °C 34577.8 hPa North 46.7 km/h 46.7 km/h 46 % 0 mm 53.0 W/m2 SCT
17:09 -7.9 °C -14.4 °C 34591.4 hPa NNW 41.7 km/h 41.7 km/h 46 % 0 mm 44.0 W/m2 BKN
17:14 -7.9 °C -14.3 °C 34577.8 hPa NNW 29.8 km/h 29.8 km/h 47 % 0 mm 35.0 W/m2 BKN
17:19 -7.9 °C -14.3 °C 34591.4 hPa NNW 38.8 km/h 38.8 km/h 47 % 0 mm 25.0 W/m2 BKN
17:23 -7.9 °C -14.1 °C 34591.4 hPa NNW 44.7 km/h 44.7 km/h 48 % 0 mm 21.0 W/m2 BKN
17:24 -7.9 °C -14.1 °C 34591.4 hPa NW 26.9 km/h 26.9 km/h 48 % 0 mm 19.0 W/m2 BKN
17:27 -8.2 °C -14.4 °C 34591.4 hPa NW 36.2 km/h 36.2 km/h 48 % 0 mm 16.0 W/m2 BKN
17:30 -8.2 °C -14.4 °C 34591.4 hPa NW 41.4 km/h 41.4 km/h 48 % 0 mm 16.0 W/m2 BKN
17:32 -8.2 °C -14.4 °C 34591.4 hPa NW 41.7 km/h 41.7 km/h 48 % 0 mm 14.0 W/m2 BKN
17:35 -8.2 °C -14.2 °C 34591.4 hPa NNW 38.8 km/h 38.8 km/h 49 % 0 mm 11.0 W/m2 BKN
17:36 -8.2 °C -14.2 °C 34591.4 hPa NW 44.7 km/h 44.7 km/h 49 % 0 mm 11.0 W/m2 BKN
17:42 -8.5 °C -14.5 °C 34591.4 hPa NW 47.6 km/h 47.6 km/h 49 % 0 mm 7.0 W/m2 BKN
17:43 -8.5 °C -14.5 °C 34591.4 hPa NW 35.7 km/h 35.7 km/h 49 % 0 mm 7.0 W/m2 BKN
17:47 -8.5 °C -14.3 °C 34591.4 hPa NW 29.8 km/h 29.8 km/h 50 % 0 mm 5.0 W/m2 OVC
17:52 -8.5 °C -14.3 °C 34601.5 hPa NW 33.6 km/h 33.6 km/h 50 % 0 mm 5.0 W/m2 OVC
17:57 -8.5 °C -14.3 °C 34591.4 hPa NW 35.7 km/h 35.7 km/h 50 % 0 mm 0.0 W/m2 CLR
17:58 -8.5 °C -14.3 °C 34591.4 hPa NW 38.8 km/h 38.8 km/h 50 % 0 mm 0.0 W/m2 CLR
17:59 -8.5 °C -14.3 °C 34591.4 hPa NNW 32.8 km/h 32.8 km/h 50 % 0 mm 0.0 W/m2 CLR
18:04 -8.8 °C -14.5 °C 34591.4 hPa NW 38.8 km/h 38.8 km/h 51 % 0 mm 0.0 W/m2 CLR
18:05 -8.8 °C -14.5 °C 34591.4 hPa NW 38.8 km/h 38.8 km/h 51 % 0 mm 0.0 W/m2 CLR
18:10 -8.8 °C -14.3 °C 34601.5 hPa WNW 44.7 km/h 44.7 km/h 52 % 0 mm 0.0 W/m2 CLR
18:15 -8.8 °C -14.3 °C 34601.5 hPa NW 36.2 km/h 36.2 km/h 52 % 0 mm 0.0 W/m2 CLR
18:19 -8.8 °C -14.3 °C 34601.5 hPa NW 35.7 km/h 35.7 km/h 52 % 0 mm 0.0 W/m2 CLR
18:21 -9.1 °C -14.6 °C 34601.5 hPa NW 29.8 km/h 29.8 km/h 52 % 0 mm 0.0 W/m2 CLR
18:22 -9.1 °C -14.6 °C 34601.5 hPa NW 29.8 km/h 29.8 km/h 52 % 0 mm 0.0 W/m2 CLR
18:27 -9.1 °C -14.4 °C 34601.5 hPa WNW 32.8 km/h 32.8 km/h 53 % 0 mm 0.0 W/m2 CLR
18:30 -9.1 °C -14.4 °C 34601.5 hPa WNW 26.9 km/h 26.9 km/h 53 % 0 mm 0.0 W/m2 CLR
18:31 -9.1 °C -14.4 °C 34601.5 hPa WNW 26.9 km/h 26.9 km/h 53 % 0 mm 0.0 W/m2 CLR
18:32 -9.1 °C -14.4 °C 34601.5 hPa WNW 26.9 km/h 26.9 km/h 53 % 0 mm 0.0 W/m2 CLR
18:36 -9.1 °C -14.4 °C 34601.5 hPa NW 35.7 km/h 35.7 km/h 53 % 0 mm 0.0 W/m2 CLR
18:41 -9.4 °C -14.7 °C 34601.5 hPa NW 29.8 km/h 29.8 km/h 53 % 0 mm 0.0 W/m2 CLR
18:43 -9.4 °C -14.6 °C 34601.5 hPa NW 44.7 km/h 44.7 km/h 54 % 0 mm 0.0 W/m2 CLR
18:46 -9.4 °C -14.6 °C 34611.7 hPa NW 32.8 km/h 32.8 km/h 54 % 0 mm 0.0 W/m2 CLR
18:51 -9.1 °C -14.3 °C 34611.7 hPa NW 32.8 km/h 32.8 km/h 54 % 0 mm 0.0 W/m2 CLR
18:52 -9.4 °C -14.6 °C 34611.7 hPa NW 35.7 km/h 35.7 km/h 54 % 0 mm 0.0 W/m2 CLR
18:57 -9.4 °C -14.4 °C 34611.7 hPa NW 32.8 km/h 32.8 km/h 55 % 0 mm 0.0 W/m2 CLR
19:00 -9.4 °C -14.4 °C 34611.7 hPa NNW 44.7 km/h 44.7 km/h 55 % 0 mm 0.0 W/m2 CLR
19:05 -9.4 °C -14.4 °C 34611.7 hPa NW 50.7 km/h 50.7 km/h 55 % 0 mm 0.0 W/m2 CLR
19:10 -9.4 °C -14.4 °C 34611.7 hPa NW 47.6 km/h 47.6 km/h 55 % 0 mm 0.0 W/m2 CLR
19:11 -9.4 °C -14.4 °C 34611.7 hPa WNW 47.6 km/h 47.6 km/h 55 % 0 mm 0.0 W/m2 CLR
19:16 -9.4 °C -14.4 °C 34611.7 hPa WNW 44.1 km/h 44.1 km/h 55 % 0 mm 0.0 W/m2 CLR
19:21 -9.4 °C -14.3 °C 34611.7 hPa NW 47.6 km/h 47.6 km/h 56 % 0 mm 0.0 W/m2 CLR
19:24 -9.4 °C -14.3 °C 34601.5 hPa WNW 53.6 km/h 53.6 km/h 56 % 0 mm 0.0 W/m2 CLR
19:27 -9.4 °C -14.3 °C 34601.5 hPa WNW 38.8 km/h 38.8 km/h 56 % 0 mm 0.0 W/m2 CLR
19:29 -9.4 °C -14.3 °C 34611.7 hPa NNW 36.2 km/h 36.2 km/h 56 % 0 mm 0.0 W/m2 CLR
19:34 -9.4 °C -14.1 °C 34601.5 hPa NW 41.7 km/h 41.7 km/h 57 % 0 mm 0.0 W/m2 CLR
19:39 -9.4 °C -14.1 °C 34611.7 hPa NW 38.8 km/h 38.8 km/h 57 % 0 mm 0.0 W/m2 CLR
19:44 -9.4 °C -14.1 °C 34611.7 hPa NW 50.7 km/h 50.7 km/h 57 % 0 mm 0.0 W/m2 CLR
19:45 -9.4 °C -14.1 °C 34611.7 hPa NW 44.7 km/h 44.7 km/h 57 % 0 mm 0.0 W/m2 CLR
19:50 -9.4 °C -14 °C 34601.5 hPa NW 50.7 km/h 50.7 km/h 58 % 0 mm 0.0 W/m2 CLR
19:55 -9.4 °C -14 °C 34601.5 hPa NW 47.6 km/h 47.6 km/h 58 % 0 mm 0.0 W/m2 CLR
19:56 -9.4 °C -14 °C 34601.5 hPa NW 47.6 km/h 47.6 km/h 58 % 0 mm 0.0 W/m2 CLR
20:01 -9.8 °C -14.3 °C 34601.5 hPa NW 41.7 km/h 41.7 km/h 58 % 0 mm 0.0 W/m2 CLR
20:02 -9.8 °C -14.3 °C 34601.5 hPa NW 47.6 km/h 47.6 km/h 58 % 0 mm 0.0 W/m2 CLR
20:07 -9.8 °C -14.3 °C 34601.5 hPa NW 38.8 km/h 38.8 km/h 58 % 0 mm 0.0 W/m2 CLR
20:12 -9.8 °C -14.3 °C 34601.5 hPa NW 50.7 km/h 50.7 km/h 58 % 0 mm 0.0 W/m2 CLR
20:13 -9.8 °C -14.3 °C 34601.5 hPa NW 47.6 km/h 47.6 km/h 58 % 0 mm 0.0 W/m2 CLR
20:18 -9.8 °C -14.3 °C 34601.5 hPa NW 44.7 km/h 44.7 km/h 58 % 0 mm 0.0 W/m2 CLR
20:19 -9.8 °C -14.3 °C 34601.5 hPa NW 44.7 km/h 44.7 km/h 58 % 0 mm 0.0 W/m2 CLR
20:23 -9.8 °C -14.3 °C 34601.5 hPa WNW 33.6 km/h 33.6 km/h 58 % 0 mm 0.0 W/m2 CLR
20:27 -9.8 °C -14.2 °C 34601.5 hPa NW 41.7 km/h 41.7 km/h 59 % 0 mm 0.0 W/m2 CLR
20:30 -9.8 °C -14.2 °C 34611.7 hPa NW 47.6 km/h 47.6 km/h 59 % 0 mm 0.0 W/m2 CLR
20:33 -10.1 °C -14.4 °C 34611.7 hPa NNW 50.7 km/h 50.7 km/h 59 % 0 mm 0.0 W/m2 CLR
20:35 -10.1 °C -14.4 °C 34611.7 hPa NNW 35.7 km/h 35.7 km/h 59 % 0 mm 0.0 W/m2 CLR
20:40 -9.8 °C -14.2 °C 34611.7 hPa NW 50.7 km/h 50.7 km/h 59 % 0 mm 0.0 W/m2 CLR
20:41 -9.8 °C -14.2 °C 34611.7 hPa NW 50.7 km/h 50.7 km/h 59 % 0 mm 0.0 W/m2 CLR
20:44 -9.8 °C -14.2 °C 34611.7 hPa NNW 32.8 km/h 32.8 km/h 59 % 0 mm 0.0 W/m2 CLR
20:50 -10.1 °C -14.4 °C 34611.7 hPa NNW 23.8 km/h 23.8 km/h 59 % 0 mm 0.0 W/m2 CLR
20:55 -10.1 °C -14.4 °C 34611.7 hPa West 23.8 km/h 23.8 km/h 59 % 0 mm 0.0 W/m2 CLR
20:57 -10.1 °C -14.4 °C 34611.7 hPa WNW 9 km/h 9 km/h 59 % 0 mm 0.0 W/m2 CLR
21:02 -10.1 °C -14.4 °C 34611.7 hPa WNW 20.9 km/h 20.9 km/h 59 % 0 mm 0.0 W/m2 CLR
21:04 -10.1 °C -14.4 °C 34611.7 hPa NW 20.9 km/h 20.9 km/h 59 % 0 mm 0.0 W/m2 CLR
21:09 -10.1 °C -14.4 °C 34611.7 hPa West 6 km/h 6 km/h 59 % 0 mm 0.0 W/m2 CLR
21:11 -10.1 °C -14.4 °C 34611.7 hPa Calm     59 % 0 mm 0.0 W/m2 CLR
21:14 -10.4 °C -14.7 °C 34611.7 hPa Calm     59 % 0 mm 0.0 W/m2 CLR
21:16 -10.4 °C -14.6 °C 34611.7 hPa West 17.9 km/h 17.9 km/h 60 % 0 mm 0.0 W/m2 CLR
21:19 -10.4 °C -14.6 °C 34611.7 hPa West 23.8 km/h 23.8 km/h 60 % 0 mm 0.0 W/m2 CLR
21:20 -10.4 °C -14.6 °C 34611.7 hPa WNW 23.8 km/h 23.8 km/h 60 % 0 mm 0.0 W/m2 CLR
21:25 -10.4 °C -14.6 °C 34611.7 hPa NW 26.9 km/h 26.9 km/h 60 % 0 mm 0.0 W/m2 CLR
21:30 -10.4 °C -14.6 °C 34611.7 hPa WNW 32.8 km/h 32.8 km/h 60 % 0 mm 0.0 W/m2 CLR
21:33 -10.4 °C -14.6 °C 34611.7 hPa WNW 23.8 km/h 23.8 km/h 60 % 0 mm 0.0 W/m2 CLR
21:35 -10.4 °C -14.6 °C 34611.7 hPa West 23.8 km/h 23.8 km/h 60 % 0 mm 0.0 W/m2 CLR
21:37 -10.4 °C -14.6 °C 34611.7 hPa WNW 17.9 km/h 17.9 km/h 60 % 0 mm 0.0 W/m2 CLR
21:41 -10.4 °C -14.6 °C 34611.7 hPa NW 23.8 km/h 23.8 km/h 60 % 0 mm 0.0 W/m2 CLR
21:44 -10.7 °C -14.9 °C 34611.7 hPa Calm     60 % 0 mm 0.0 W/m2 CLR
21:49 -11 °C -15.1 °C 34611.7 hPa Calm     61 % 0 mm 0.0 W/m2 CLR
21:51 -11 °C -15.1 °C 34601.5 hPa Calm   0.5 km/h 61 % 0 mm 0.0 W/m2 CLR
21:54 -11.3 °C -15.3 °C 34601.5 hPa WNW 12.9 km/h 12.9 km/h 61 % 0 mm 0.0 W/m2 CLR
22:02 -11.3 °C -15.3 °C 34601.5 hPa WNW 32.8 km/h 32.8 km/h 61 % 0 mm 0.0 W/m2 CLR
22:09 -11 °C -15.2 °C 34601.5 hPa WNW 41.7 km/h 41.7 km/h 60 % 0 mm 0.0 W/m2 CLR
22:11 -11 °C -15.2 °C 34601.5 hPa WNW 29.8 km/h 29.8 km/h 60 % 0 mm 0.0 W/m2 CLR
22:13 -11 °C -15.2 °C 34601.5 hPa West 26.9 km/h 26.9 km/h 60 % 0 mm 0.0 W/m2 CLR
22:14 -11 °C -15.2 °C 34591.4 hPa West 23.8 km/h 23.8 km/h 60 % 0 mm 0.0 W/m2 CLR
22:19 -11 °C -15.2 °C 34601.5 hPa NW 23.8 km/h 23.8 km/h 60 % 0 mm 0.0 W/m2 CLR
22:22 -11 °C -15.2 °C 34591.4 hPa NW 36.2 km/h 36.2 km/h 60 % 0 mm 0.0 W/m2 CLR
22:25 -11 °C -15.2 °C 34591.4 hPa West 29.8 km/h 29.8 km/h 60 % 0 mm 0.0 W/m2 CLR
22:32 -11 °C -15.2 °C 34591.4 hPa West 26.9 km/h 26.9 km/h 60 % 0 mm 0.0 W/m2 CLR
22:33 -11 °C -15.2 °C 34591.4 hPa West 26.9 km/h 26.9 km/h 60 % 0 mm 0.0 W/m2 CLR
22:42 -11.3 °C -15.4 °C 34591.4 hPa WNW 23.8 km/h 23.8 km/h 60 % 0 mm 0.0 W/m2 CLR
22:43 -11.3 °C -15.4 °C 34591.4 hPa WNW 23.8 km/h 23.8 km/h 60 % 0 mm 0.0 W/m2 CLR
22:44 -11.3 °C -15.4 °C 34591.4 hPa WNW 23.8 km/h 23.8 km/h 60 % 0 mm 0.0 W/m2 CLR
22:46 -11.3 °C -15.4 °C 34577.8 hPa West 23.8 km/h 23.8 km/h 60 % 0 mm 0.0 W/m2 CLR
22:47 -11.3 °C -15.4 °C 34577.8 hPa West 23.8 km/h 23.8 km/h 60 % 0 mm 0.0 W/m2 CLR
22:48 -11.6 °C -15.8 °C 34577.8 hPa West 17.9 km/h 17.9 km/h 60 % 0 mm 0.0 W/m2 CLR
22:49 -11.6 °C -15.6 °C 34577.8 hPa NW 18.2 km/h 18.2 km/h 61 % 0 mm 0.0 W/m2 CLR
22:50 -11.3 °C -15.3 °C 34577.8 hPa WNW 23.8 km/h 23.8 km/h 61 % 0 mm 0.0 W/m2 CLR
22:53 -11.3 °C -15.3 °C 34577.8 hPa West 29.8 km/h 29.8 km/h 61 % 0 mm 0.0 W/m2 CLR
22:55 -11.3 °C -15.3 °C 34577.8 hPa West 23.8 km/h 23.8 km/h 61 % 0 mm 0.0 W/m2 CLR
22:58 -11 °C -15.1 °C 34577.8 hPa WNW 29.8 km/h 29.8 km/h 61 % 0 mm 0.0 W/m2 CLR
23:03 -11 °C -15.1 °C 34577.8 hPa Calm     61 % 0 mm 0.0 W/m2 CLR
23:04 -11 °C -15.1 °C 34577.8 hPa Calm     61 % 0 mm 0.0 W/m2 CLR
23:09 -11 °C -14.9 °C 34577.8 hPa West 3.1 km/h 3.1 km/h 62 % 0 mm 0.0 W/m2 CLR
23:12 -11 °C -14.9 °C 34577.8 hPa WSW 9 km/h 9 km/h 62 % 0 mm 0.0 W/m2 CLR
23:21 -10.7 °C -14.5 °C 34577.8 hPa West 15 km/h 15 km/h 63 % 0 mm 0.0 W/m2 CLR
23:26 -10.7 °C -14.5 °C 34577.8 hPa West 25.9 km/h 25.9 km/h 63 % 0 mm 0.0 W/m2 CLR
23:31 -11 °C -14.7 °C 34577.8 hPa West 26.9 km/h 26.9 km/h 64 % 0 mm 0.0 W/m2 CLR
23:34 -11 °C -14.7 °C 34577.8 hPa WSW 26.9 km/h 26.9 km/h 64 % 0 mm 0.0 W/m2 CLR
23:36 -11 °C -14.7 °C 34567.7 hPa WNW 29.8 km/h 29.8 km/h 64 % 0 mm 0.0 W/m2 CLR
23:41 -11 °C -14.7 °C 34567.7 hPa WNW 29.8 km/h 29.8 km/h 64 % 0 mm 0.0 W/m2 CLR
23:43 -11.3 °C -14.9 °C 34567.7 hPa WNW 29.8 km/h 29.8 km/h 64 % 0 mm 0.0 W/m2 CLR
23:48 -11.3 °C -14.9 °C 34567.7 hPa WNW 32.8 km/h 32.8 km/h 64 % 0 mm 0.0 W/m2 CLR
23:50 -11.3 °C -14.9 °C 34567.7 hPa WNW 35.7 km/h 35.7 km/h 64 % 0 mm 0.0 W/m2 CLR
23:56 -11.3 °C -15.1 °C 34567.7 hPa WNW 36.2 km/h 36.2 km/h 63 % 0 mm 0.0 W/m2 CLR
23:57 -11.3 °C -15.1 °C 34567.7 hPa West 41.4 km/h 41.4 km/h 63 % 0 mm 0.0 W/m2 CLR
Lo Temps de Massalio
Compliments of Weather Underground - 1.5 mb